createdAt,value
2017-05-05T00:01:34.528Z,80.10
2017-05-05T00:04:03.409Z,80.20
2017-05-05T00:06:32.294Z,80.10
2017-05-05T00:09:01.207Z,80.10
2017-05-05T00:11:30.088Z,80.50
2017-05-05T00:13:58.968Z,81.30
2017-05-05T00:16:27.882Z,80.70
2017-05-05T00:18:56.760Z,81.30
2017-05-05T00:21:25.637Z,81.10
2017-05-05T00:23:54.548Z,80.80
2017-05-05T00:26:23.423Z,80.90
2017-05-05T00:28:52.300Z,81.30
2017-05-05T00:31:21.191Z,81.20
2017-05-05T00:33:50.068Z,81.20
2017-05-05T00:36:19.360Z,81.60
2017-05-05T00:38:48.249Z,81.60
2017-05-05T00:41:17.124Z,81.30
2017-05-05T00:43:46.788Z,81.30
2017-05-05T00:46:15.662Z,81.30
2017-05-05T00:48:44.541Z,81.00
2017-05-05T00:51:13.448Z,81.20
2017-05-05T00:53:42.331Z,81.80
2017-05-05T00:56:11.219Z,82.00
2017-05-05T00:58:40.221Z,81.70
2017-05-05T01:01:09.104Z,81.90
2017-05-05T01:03:37.981Z,81.70
2017-05-05T01:06:06.897Z,82.20
2017-05-05T01:08:35.784Z,82.50
2017-05-05T01:11:04.653Z,82.30
2017-05-05T01:13:33.799Z,82.80
2017-05-05T01:16:02.687Z,82.10
2017-05-05T01:18:31.561Z,82.30
2017-05-05T01:21:00.569Z,82.30
2017-05-05T01:23:29.441Z,82.60
2017-05-05T01:25:58.321Z,84.30
2017-05-05T01:28:27.232Z,84.50
2017-05-05T01:30:56.105Z,84.10
2017-05-05T01:33:24.976Z,83.80
2017-05-05T01:35:53.895Z,84.50
2017-05-05T01:38:22.763Z,84.00
2017-05-05T01:40:51.630Z,83.50
2017-05-05T01:43:20.556Z,83.90
2017-05-05T01:45:49.441Z,81.80
2017-05-05T01:48:18.313Z,80.80
2017-05-05T01:50:47.317Z,82.90
2017-05-05T01:53:16.185Z,83.30
2017-05-05T01:55:45.802Z,83.80
2017-05-05T01:58:14.721Z,81.80
2017-05-05T02:00:43.592Z,83.40
2017-05-05T02:03:12.476Z,81.90
2017-05-05T02:05:41.404Z,82.00
2017-05-05T02:08:10.293Z,81.80
2017-05-05T02:10:39.175Z,82.00
2017-05-05T02:13:08.100Z,82.60
2017-05-05T02:15:36.995Z,83.00
2017-05-05T02:18:05.867Z,82.70
2017-05-05T02:20:34.768Z,82.60
2017-05-05T02:23:03.641Z,82.70
2017-05-05T02:25:32.740Z,82.80
2017-05-05T02:28:01.623Z,82.80
2017-05-05T02:30:30.499Z,83.00
2017-05-05T02:32:59.401Z,83.10
2017-05-05T02:35:28.285Z,83.00
2017-05-05T02:37:57.212Z,83.00
2017-05-05T02:40:26.085Z,82.70
2017-05-05T02:42:54.963Z,83.10
2017-05-05T02:45:24.157Z,82.70
2017-05-05T02:47:53.034Z,82.80
2017-05-05T02:50:21.908Z,83.00
2017-05-05T02:52:50.824Z,83.30
2017-05-05T02:55:19.736Z,83.10
2017-05-05T02:57:48.616Z,83.10
2017-05-05T03:00:17.617Z,84.60
2017-05-05T03:02:46.505Z,83.30
2017-05-05T03:05:15.384Z,83.10
2017-05-05T03:07:44.621Z,83.30
2017-05-05T03:10:13.492Z,84.80
2017-05-05T03:12:42.359Z,85.30
2017-05-05T03:15:11.269Z,85.00
2017-05-05T03:17:40.138Z,85.70
2017-05-05T03:20:09.013Z,83.90
2017-05-05T03:22:37.917Z,84.10
2017-05-05T03:25:06.796Z,83.50
2017-05-05T03:27:35.713Z,83.70
2017-05-05T03:30:04.597Z,83.60
2017-05-05T03:32:33.472Z,83.70
2017-05-05T03:35:02.377Z,85.10
2017-05-05T03:37:31.255Z,84.00
2017-05-05T03:40:00.136Z,83.90
2017-05-05T03:42:29.055Z,84.30
2017-05-05T03:44:57.929Z,83.40
2017-05-05T03:47:26.812Z,83.40
2017-05-05T03:49:56.024Z,83.70
2017-05-05T03:52:24.910Z,83.30
2017-05-05T03:54:53.792Z,83.80
2017-05-05T03:57:22.714Z,83.30
2017-05-05T03:59:51.592Z,83.60
2017-05-05T04:02:20.471Z,83.50
2017-05-05T04:04:49.383Z,83.20
2017-05-05T04:07:18.257Z,83.50
2017-05-05T04:09:47.175Z,83.20
2017-05-05T04:12:16.052Z,83.80
2017-05-05T04:14:44.949Z,83.80
2017-05-05T04:17:14.129Z,83.60
2017-05-05T04:19:43.006Z,83.10
2017-05-05T04:22:11.892Z,83.30
2017-05-05T04:24:41.545Z,83.60
2017-05-05T04:27:10.421Z,83.50
2017-05-05T04:29:39.292Z,83.80
2017-05-05T04:32:08.499Z,84.00
2017-05-05T04:34:37.372Z,84.00
2017-05-05T04:37:06.256Z,83.70
2017-05-05T04:39:35.159Z,83.20
2017-05-05T04:42:04.032Z,82.50
2017-05-05T04:44:32.948Z,82.90
2017-05-05T04:47:01.837Z,82.00
2017-05-05T04:49:30.714Z,82.00
2017-05-05T04:51:59.938Z,82.40
2017-05-05T04:54:28.936Z,82.10
2017-05-05T04:56:58.608Z,82.20
2017-05-05T04:59:27.480Z,82.00
2017-05-05T05:01:57.130Z,82.20
2017-05-05T05:04:26.014Z,82.00
2017-05-05T05:06:55.038Z,82.20
2017-05-05T05:09:23.913Z,81.70
2017-05-05T05:11:53.104Z,81.30
2017-05-05T05:14:21.980Z,81.10
2017-05-05T05:16:50.883Z,81.50
2017-05-05T05:19:19.792Z,80.40
2017-05-05T05:21:48.702Z,80.40
2017-05-05T05:24:17.580Z,81.50
2017-05-05T05:26:46.513Z,79.00
2017-05-05T05:29:16.171Z,79.20
2017-05-05T05:31:45.152Z,80.10
2017-05-05T05:34:14.060Z,78.20
2017-05-05T05:36:42.941Z,78.10
2017-05-05T05:39:11.891Z,77.40
2017-05-05T05:41:41.512Z,77.10
2017-05-05T05:44:10.394Z,76.50
2017-05-05T05:46:40.037Z,76.00
2017-05-05T05:49:08.903Z,76.70
2017-05-05T05:51:37.909Z,75.90
2017-05-05T05:54:06.785Z,75.60
2017-05-05T05:56:35.668Z,75.50
2017-05-05T05:59:04.588Z,76.50
2017-05-05T06:01:33.468Z,75.90
2017-05-05T06:04:02.395Z,76.00
2017-05-05T06:06:31.273Z,75.20
2017-05-05T06:09:00.236Z,74.10
2017-05-05T06:11:29.205Z,74.60
2017-05-05T06:13:58.830Z,74.70
2017-05-05T06:16:27.946Z,74.40
2017-05-05T06:18:56.879Z,74.40
2017-05-05T06:21:25.801Z,74.90
2017-05-05T06:23:55.420Z,74.10
2017-05-05T06:26:24.324Z,74.70
2017-05-05T06:28:53.228Z,74.60
2017-05-05T06:31:22.124Z,75.60
2017-05-05T06:33:51.057Z,72.70
2017-05-05T06:36:19.956Z,72.60
2017-05-05T06:38:49.623Z,73.00
2017-05-05T06:41:18.501Z,73.70
2017-05-05T06:43:47.379Z,72.40
2017-05-05T06:46:16.591Z,71.60
2017-05-05T06:48:45.465Z,71.00
2017-05-05T06:51:14.343Z,71.30
2017-05-05T06:53:43.257Z,71.10
2017-05-05T06:56:12.145Z,70.20
2017-05-05T06:58:41.017Z,67.90
2017-05-05T07:01:09.918Z,68.60
2017-05-05T07:03:38.788Z,67.90
2017-05-05T07:06:07.795Z,69.30
2017-05-05T07:08:37.850Z,69.50
2017-05-05T07:11:06.725Z,71.40
2017-05-05T07:13:35.644Z,71.80
2017-05-05T07:16:04.525Z,72.50
2017-05-05T07:18:33.405Z,71.50
2017-05-05T07:21:02.332Z,70.00
2017-05-05T07:23:31.270Z,71.90
2017-05-05T07:26:00.159Z,71.00
2017-05-05T07:28:29.157Z,68.50
2017-05-05T07:30:58.033Z,68.20
2017-05-05T07:33:26.905Z,68.30
2017-05-05T07:35:56.565Z,68.70
2017-05-05T07:38:25.437Z,71.00
2017-05-05T07:40:54.316Z,70.70
2017-05-05T07:43:23.234Z,69.70
2017-05-05T07:45:52.165Z,68.80
2017-05-05T07:48:21.090Z,69.90
2017-05-05T07:50:50.301Z,68.40
2017-05-05T07:53:19.176Z,66.70
2017-05-05T07:55:48.061Z,68.90
2017-05-05T07:58:16.981Z,67.70
2017-05-05T08:00:45.859Z,67.70
2017-05-05T08:03:14.734Z,67.30
2017-05-05T08:05:43.645Z,69.50
2017-05-05T08:08:12.520Z,69.60
2017-05-05T08:10:41.397Z,67.20
2017-05-05T08:13:11.168Z,67.90
2017-05-05T08:15:40.040Z,66.00
2017-05-05T08:18:11.264Z,66.60
2017-05-05T08:20:40.145Z,64.70
2017-05-05T08:23:09.072Z,64.40
2017-05-05T08:25:38.072Z,63.30
2017-05-05T08:28:06.945Z,63.80
2017-05-05T08:30:35.817Z,63.80
2017-05-05T08:33:04.712Z,62.50
2017-05-05T08:35:33.590Z,60.80
2017-05-05T08:38:02.501Z,59.60
2017-05-05T08:40:31.828Z,60.60
2017-05-05T08:43:00.788Z,63.10
2017-05-05T08:45:29.683Z,63.90
2017-05-05T08:47:58.558Z,65.00
2017-05-05T08:50:27.432Z,64.40
2017-05-05T08:52:57.381Z,64.10
2017-05-05T08:55:26.262Z,64.80
2017-05-05T08:57:55.134Z,62.30
2017-05-05T09:00:24.133Z,63.30
2017-05-05T09:02:53.012Z,63.40
2017-05-05T09:05:22.643Z,62.70
2017-05-05T09:07:51.565Z,63.10
2017-05-05T09:10:20.450Z,61.40
2017-05-05T09:12:49.457Z,59.40
2017-05-05T09:15:18.332Z,60.10
2017-05-05T09:17:47.213Z,59.90
2017-05-05T09:20:16.114Z,58.10
2017-05-05T09:22:44.991Z,57.00
2017-05-05T09:25:13.889Z,58.20
2017-05-05T09:27:42.764Z,58.50
2017-05-05T09:30:11.680Z,60.30
2017-05-05T09:32:40.555Z,59.70
2017-05-05T09:35:09.434Z,61.30
2017-05-05T09:37:38.547Z,59.30
2017-05-05T09:40:07.517Z,62.00
2017-05-05T09:42:36.401Z,61.40
2017-05-05T09:45:05.317Z,62.30
2017-05-05T09:47:34.200Z,68.70
2017-05-05T09:50:03.071Z,72.00
2017-05-05T09:52:31.989Z,72.60
2017-05-05T09:55:00.881Z,77.60
2017-05-05T09:57:29.762Z,77.60
2017-05-05T09:59:58.685Z,81.80
2017-05-05T10:02:27.572Z,82.50
2017-05-05T10:04:56.448Z,82.70
2017-05-05T10:07:25.361Z,82.30
2017-05-05T10:09:54.243Z,81.50
2017-05-05T10:12:23.123Z,84.20
2017-05-05T10:14:52.040Z,87.30
2017-05-05T10:17:20.913Z,88.30
2017-05-05T10:19:49.853Z,88.50
2017-05-05T10:22:18.733Z,89.70
2017-05-05T10:24:48.401Z,90.10
2017-05-05T10:27:17.341Z,90.00
2017-05-05T10:29:46.225Z,90.20
2017-05-05T10:32:15.873Z,90.20
2017-05-05T10:34:44.806Z,89.10
2017-05-05T10:37:13.680Z,90.50
2017-05-05T10:39:42.560Z,90.60
2017-05-05T10:42:11.741Z,90.20
2017-05-05T10:44:40.634Z,90.30
2017-05-05T10:49:44.807Z,90.80
2017-05-05T10:52:13.676Z,90.40
2017-05-05T10:54:42.558Z,90.70
2017-05-05T10:57:11.743Z,89.80
2017-05-05T10:59:40.625Z,89.60
2017-05-05T11:02:09.521Z,89.50
2017-05-05T11:04:38.725Z,88.80
2017-05-05T11:07:07.606Z,89.60
2017-05-05T11:09:36.496Z,90.00
2017-05-05T11:12:05.612Z,90.30
2017-05-05T11:14:34.489Z,90.10
2017-05-05T11:17:03.370Z,90.00
2017-05-05T11:19:32.371Z,89.50
2017-05-05T11:22:01.261Z,89.20
2017-05-05T11:24:30.148Z,90.20
2017-05-05T11:26:59.072Z,89.80
2017-05-05T11:29:27.954Z,88.60
2017-05-05T11:31:56.829Z,89.50
2017-05-05T11:34:25.833Z,88.00
2017-05-05T11:36:54.704Z,89.30
2017-05-05T11:39:23.584Z,90.00
2017-05-05T11:41:53.064Z,88.50
2017-05-05T11:44:22.690Z,88.70
2017-05-05T11:46:51.565Z,89.70
2017-05-05T11:49:21.510Z,89.30
2017-05-05T11:51:50.391Z,88.80
2017-05-05T11:54:19.277Z,87.90
2017-05-05T11:56:48.178Z,90.10
2017-05-05T11:59:17.082Z,88.10
2017-05-05T12:01:45.957Z,88.00
2017-05-05T12:04:14.896Z,89.00
2017-05-05T12:06:43.769Z,88.90
2017-05-05T12:09:12.645Z,89.60
2017-05-05T12:11:41.558Z,89.80
2017-05-05T12:14:10.434Z,89.40
2017-05-05T12:16:39.366Z,90.60
2017-05-05T12:19:08.249Z,90.60
2017-05-05T12:21:37.141Z,89.50
2017-05-05T12:24:06.064Z,89.00
2017-05-05T12:26:34.946Z,89.50
2017-05-05T12:29:04.572Z,89.60
2017-05-05T12:31:33.480Z,87.40
2017-05-05T12:34:02.672Z,88.00
2017-05-05T12:36:31.564Z,89.80
2017-05-05T12:39:00.444Z,88.10
2017-05-05T12:41:29.650Z,88.70
2017-05-05T12:43:58.544Z,89.60
2017-05-05T12:46:27.426Z,89.50
2017-05-05T12:48:56.636Z,88.50
2017-05-05T12:51:25.519Z,88.30
2017-05-05T12:53:54.395Z,87.30
2017-05-05T12:56:23.305Z,89.40
2017-05-05T12:58:52.184Z,88.50
2017-05-05T13:01:21.060Z,87.80
2017-05-05T13:03:50.072Z,88.40
2017-05-05T13:06:18.946Z,87.50
2017-05-05T13:08:47.825Z,86.90
2017-05-05T13:11:17.494Z,85.50
2017-05-05T13:13:46.369Z,84.10
2017-05-05T13:16:15.253Z,85.80
2017-05-05T13:18:44.443Z,80.90
2017-05-05T13:21:13.323Z,81.70
2017-05-05T13:23:42.202Z,83.50
2017-05-05T13:26:11.122Z,83.60
2017-05-05T13:28:39.997Z,86.10
2017-05-05T13:31:08.879Z,82.90
2017-05-05T13:33:37.790Z,84.90
2017-05-05T13:36:06.665Z,83.90
2017-05-05T13:38:35.546Z,86.90
2017-05-05T13:41:03.691Z,86.90
2017-05-05T13:43:32.579Z,85.30
2017-05-05T13:46:01.506Z,84.60
2017-05-05T13:48:30.389Z,88.10
2017-05-05T13:50:59.277Z,85.00
2017-05-05T13:53:28.917Z,84.40
2017-05-05T13:55:57.797Z,86.30
2017-05-05T13:58:26.999Z,86.60
2017-05-05T14:00:55.879Z,87.00
2017-05-05T14:03:24.761Z,85.30
2017-05-05T14:05:53.705Z,83.30
2017-05-05T14:08:22.659Z,83.90
2017-05-05T14:10:51.531Z,82.90
2017-05-05T14:13:20.761Z,80.20
2017-05-05T14:15:49.638Z,80.40
2017-05-05T14:18:18.545Z,84.30
2017-05-05T14:20:47.742Z,82.40
2017-05-05T14:23:16.627Z,80.30
2017-05-05T14:25:45.522Z,82.20
2017-05-05T14:28:14.526Z,82.20
2017-05-05T14:30:43.410Z,84.50
2017-05-05T14:33:12.288Z,81.00
2017-05-05T14:35:41.217Z,80.50
2017-05-05T14:38:10.089Z,79.60
2017-05-05T14:40:38.968Z,80.50
2017-05-05T14:43:08.082Z,80.10
2017-05-05T14:45:36.961Z,83.90
2017-05-05T14:48:05.842Z,79.30
2017-05-05T14:50:34.761Z,79.60
2017-05-05T14:53:03.636Z,79.50
2017-05-05T14:55:32.527Z,81.80
2017-05-05T14:58:01.522Z,81.80
2017-05-05T15:00:30.398Z,81.60
2017-05-05T15:02:59.272Z,81.60
2017-05-05T15:05:28.188Z,81.80
2017-05-05T15:07:57.065Z,83.60
2017-05-05T15:10:25.941Z,83.70
2017-05-05T15:12:54.862Z,80.80
2017-05-05T15:15:23.736Z,79.10
2017-05-05T15:17:52.607Z,79.40
2017-05-05T15:20:21.525Z,80.60
2017-05-05T15:22:50.405Z,83.30
2017-05-05T15:25:19.281Z,82.40
2017-05-05T15:27:48.285Z,79.20
2017-05-05T15:30:17.163Z,78.60
2017-05-05T15:32:46.037Z,80.30
2017-05-05T15:35:15.811Z,81.80
2017-05-05T15:37:44.723Z,80.00
2017-05-05T15:40:13.596Z,80.20
2017-05-05T15:42:42.512Z,79.30
2017-05-05T15:45:12.138Z,81.10
2017-05-05T15:47:41.748Z,79.70
2017-05-05T15:50:11.405Z,78.20
2017-05-05T15:52:40.287Z,78.50
2017-05-05T15:55:09.165Z,78.60
2017-05-05T15:57:38.073Z,77.20
2017-05-05T16:00:06.945Z,78.80
2017-05-05T16:02:35.861Z,82.60
2017-05-05T16:05:04.737Z,78.50
2017-05-05T16:07:33.620Z,81.50
2017-05-05T16:10:03.017Z,81.40
2017-05-05T16:12:31.888Z,77.30
2017-05-05T16:15:00.765Z,81.30
2017-05-05T16:17:30.613Z,81.90
2017-05-05T16:19:59.489Z,77.50
2017-05-05T16:22:28.365Z,79.00
2017-05-05T16:24:58.310Z,80.90
2017-05-05T16:27:27.185Z,80.60
2017-05-05T16:29:56.063Z,82.20
2017-05-05T16:32:25.717Z,83.20
2017-05-05T16:34:54.593Z,81.90
2017-05-05T16:37:23.470Z,84.80
2017-05-05T16:39:52.680Z,84.70
2017-05-05T16:42:21.552Z,85.50
2017-05-05T16:44:50.431Z,85.70
2017-05-05T16:47:20.073Z,83.50
2017-05-05T16:49:48.948Z,84.70
2017-05-05T16:52:17.870Z,86.70
2017-05-05T16:54:46.752Z,83.70
2017-05-05T16:57:15.705Z,85.90
2017-05-05T16:59:45.572Z,86.90
2017-05-05T17:02:14.441Z,84.80
2017-05-05T17:04:43.317Z,87.70
2017-05-05T17:07:12.238Z,88.60
2017-05-05T17:09:41.115Z,87.30
2017-05-05T17:12:09.989Z,86.70
2017-05-05T17:14:38.908Z,85.50
2017-05-05T17:17:07.784Z,87.10
2017-05-05T17:19:36.676Z,85.30
2017-05-05T17:22:05.863Z,84.60
2017-05-05T17:24:34.749Z,86.60
2017-05-05T17:27:03.633Z,88.70
2017-05-05T17:29:32.634Z,87.60
2017-05-05T17:32:01.509Z,88.80
2017-05-05T17:34:30.389Z,89.20
2017-05-05T17:37:00.065Z,90.10
2017-05-05T17:39:28.944Z,90.30
2017-05-05T17:41:57.829Z,90.50
2017-05-05T17:44:27.009Z,90.80
2017-05-05T17:46:55.893Z,91.00
2017-05-05T17:49:24.769Z,91.00
2017-05-05T17:51:53.684Z,91.00
2017-05-05T17:54:22.827Z,91.10
2017-05-05T17:56:51.692Z,91.10
2017-05-05T17:59:20.569Z,91.30
2017-05-05T18:01:49.758Z,91.40
2017-05-05T18:04:18.951Z,91.50
2017-05-05T18:06:47.826Z,91.60
2017-05-05T18:09:16.696Z,91.70
2017-05-05T18:11:46.341Z,91.90
2017-05-05T18:14:15.216Z,91.80
2017-05-05T18:16:44.136Z,91.90
2017-05-05T18:19:13.021Z,92.10
2017-05-05T18:21:41.909Z,92.00
2017-05-05T18:24:10.824Z,92.10
2017-05-05T18:26:39.710Z,92.20
2017-05-05T18:29:08.881Z,91.80
2017-05-05T18:31:37.759Z,92.00
2017-05-05T18:34:06.648Z,92.00
2017-05-05T18:36:35.859Z,92.10
2017-05-05T18:39:04.753Z,91.90
2017-05-05T18:41:33.676Z,92.00
2017-05-05T18:44:02.689Z,92.10
2017-05-05T18:46:32.317Z,92.10
2017-05-05T18:49:01.200Z,92.40
2017-05-05T18:51:30.112Z,92.40
2017-05-05T18:53:59.024Z,92.20
2017-05-05T18:56:27.911Z,92.10
2017-05-05T18:58:57.107Z,92.20
2017-05-05T19:01:25.991Z,91.90
2017-05-05T19:03:54.877Z,92.10
2017-05-05T19:06:23.820Z,92.20
2017-05-05T19:08:52.709Z,92.20
2017-05-05T19:11:21.593Z,91.70
2017-05-05T19:13:50.657Z,91.80
2017-05-05T19:16:19.549Z,92.30
2017-05-05T19:18:48.453Z,92.40
2017-05-05T19:21:17.381Z,92.40
2017-05-05T19:23:47.012Z,92.20
2017-05-05T19:26:15.906Z,92.10
2017-05-05T19:28:44.924Z,92.10
2017-05-05T19:31:13.800Z,92.10
2017-05-05T19:33:42.690Z,91.90
2017-05-05T19:38:45.720Z,92.30
2017-05-05T19:41:14.653Z,92.20
2017-05-05T19:43:44.277Z,92.80
2017-05-05T19:46:14.254Z,92.30
2017-05-05T19:48:43.221Z,92.30
2017-05-05T19:53:45.764Z,92.20
2017-05-05T19:56:15.400Z,92.00
2017-05-05T19:58:44.329Z,91.90
2017-05-05T20:01:13.242Z,91.90
2017-05-05T20:03:42.124Z,92.20
2017-05-05T20:08:45.221Z,91.80
2017-05-05T20:11:14.104Z,91.70
2017-05-05T20:13:42.993Z,91.80
2017-05-05T20:16:12.013Z,91.90
2017-05-05T20:18:40.909Z,92.00
2017-05-05T20:21:10.541Z,92.20
2017-05-05T20:23:39.468Z,92.50
2017-05-05T20:26:08.353Z,91.80
2017-05-05T20:28:37.241Z,91.70
2017-05-05T20:31:06.173Z,91.60
2017-05-05T20:33:35.065Z,91.30
2017-05-05T20:36:03.949Z,91.50
2017-05-05T20:38:32.865Z,91.70
2017-05-05T20:41:02.497Z,91.70
2017-05-05T20:43:31.401Z,91.80
2017-05-05T20:46:00.328Z,92.20
2017-05-05T20:48:29.216Z,92.00
2017-05-05T20:50:58.097Z,91.60
2017-05-05T20:53:27.110Z,91.70
2017-05-05T20:55:56.033Z,91.40
2017-05-05T20:58:24.949Z,91.40
2017-05-05T21:00:53.828Z,91.30
2017-05-05T21:03:23.070Z,91.50
2017-05-05T21:05:51.957Z,91.60
2017-05-05T21:08:20.850Z,91.60
2017-05-05T21:10:49.853Z,91.40
2017-05-05T21:13:18.739Z,91.10
2017-05-05T21:15:47.629Z,91.10
2017-05-05T21:18:16.554Z,91.00
2017-05-05T21:20:46.175Z,91.20
2017-05-05T21:23:15.069Z,91.40
2017-05-05T21:25:43.993Z,91.40
2017-05-05T21:28:12.898Z,91.30
2017-05-05T21:30:41.782Z,91.50
2017-05-05T21:33:10.955Z,91.40
2017-05-05T21:35:40.080Z,91.60
2017-05-05T21:38:08.963Z,91.60
2017-05-05T21:40:37.877Z,91.60
2017-05-05T21:43:06.753Z,91.40
2017-05-05T21:45:35.635Z,91.30
2017-05-05T21:48:04.549Z,91.10
2017-05-05T21:50:33.429Z,91.20
2017-05-05T21:53:02.310Z,91.20
2017-05-05T21:55:31.329Z,91.00
2017-05-05T21:58:00.214Z,91.20
2017-05-05T22:00:29.089Z,91.30
2017-05-05T22:02:58.010Z,91.30
2017-05-05T22:05:27.625Z,91.50
2017-05-05T22:07:57.244Z,91.50
2017-05-05T22:10:26.156Z,91.60
2017-05-05T22:12:55.057Z,91.40
2017-05-05T22:15:23.937Z,91.20
2017-05-05T22:17:52.831Z,91.10
2017-05-05T22:20:21.708Z,91.10
2017-05-05T22:22:50.616Z,91.10
2017-05-05T22:25:19.497Z,91.10
2017-05-05T22:27:48.433Z,91.20
2017-05-05T22:30:17.313Z,91.00
2017-05-05T22:32:46.193Z,91.10
2017-05-05T22:35:15.108Z,91.00
2017-05-05T22:37:43.987Z,91.30
2017-05-05T22:40:12.856Z,91.30
2017-05-05T22:42:41.764Z,91.20
2017-05-05T22:45:10.646Z,91.20
2017-05-05T22:47:39.524Z,90.80
2017-05-05T22:50:08.525Z,91.10
2017-05-05T22:52:37.401Z,91.20
2017-05-05T22:55:06.287Z,91.20
2017-05-05T22:57:35.200Z,91.40
2017-05-05T23:00:04.083Z,91.40
2017-05-05T23:02:32.964Z,91.10
2017-05-05T23:05:01.868Z,91.10
2017-05-05T23:07:30.784Z,91.00
2017-05-05T23:09:59.660Z,90.90
2017-05-05T23:12:28.540Z,90.90
2017-05-05T23:14:57.456Z,91.50
2017-05-05T23:17:26.328Z,91.50
2017-05-05T23:19:55.205Z,91.40
2017-05-05T23:22:24.121Z,91.50
2017-05-05T23:24:53.001Z,91.50
2017-05-05T23:27:21.888Z,91.80
2017-05-05T23:29:50.800Z,91.30
2017-05-05T23:32:19.677Z,91.40
2017-05-05T23:34:48.560Z,91.40
2017-05-05T23:37:17.565Z,91.30
2017-05-05T23:39:46.446Z,91.50
2017-05-05T23:42:15.321Z,91.50
2017-05-05T23:44:44.326Z,91.50
2017-05-05T23:47:13.201Z,91.30
2017-05-05T23:49:42.079Z,91.20
2017-05-05T23:52:11.008Z,91.10
2017-05-05T23:54:39.886Z,91.00
2017-05-05T23:57:08.764Z,90.90
2017-05-05T23:59:37.693Z,91.00
